sensor_id;sensor_type;location;lat;lon;timestamp;temperature;humidity
33815;DHT22;20121;51.910;8.406;2024-02-23T00:01:39;8.50;99.90
33815;DHT22;20121;51.910;8.406;2024-02-23T00:04:05;8.50;99.90
33815;DHT22;20121;51.910;8.406;2024-02-23T00:06:33;8.50;99.90
33815;DHT22;20121;51.910;8.406;2024-02-23T00:08:59;8.40;99.90
33815;DHT22;20121;51.910;8.406;2024-02-23T00:11:25;8.40;99.90
33815;DHT22;20121;51.910;8.406;2024-02-23T00:13:50;8.40;99.90
33815;DHT22;20121;51.910;8.406;2024-02-23T00:16:16;8.30;99.90
33815;DHT22;20121;51.910;8.406;2024-02-23T00:18:42;8.30;99.90
33815;DHT22;20121;51.910;8.406;2024-02-23T00:21:07;8.10;99.90
33815;DHT22;20121;51.910;8.406;2024-02-23T00:23:34;8.20;99.90
33815;DHT22;20121;51.910;8.406;2024-02-23T00:25:59;8.00;99.90
33815;DHT22;20121;51.910;8.406;2024-02-23T00:28:25;7.90;99.90
33815;DHT22;20121;51.910;8.406;2024-02-23T00:30:50;7.80;99.90
33815;DHT22;20121;51.910;8.406;2024-02-23T00:33:16;7.80;99.90
33815;DHT22;20121;51.910;8.406;2024-02-23T00:35:42;7.70;99.90
33815;DHT22;20121;51.910;8.406;2024-02-23T00:38:07;7.60;99.90
33815;DHT22;20121;51.910;8.406;2024-02-23T00:40:33;7.50;99.90
33815;DHT22;20121;51.910;8.406;2024-02-23T00:42:59;7.50;99.90
33815;DHT22;20121;51.910;8.406;2024-02-23T00:45:26;7.40;99.90
33815;DHT22;20121;51.910;8.406;2024-02-23T00:47:52;7.30;99.90
33815;DHT22;20121;51.910;8.406;2024-02-23T00:50:17;7.20;99.90
33815;DHT22;20121;51.910;8.406;2024-02-23T00:52:43;7.20;99.90
33815;DHT22;20121;51.910;8.406;2024-02-23T00:55:09;7.20;99.90
33815;DHT22;20121;51.910;8.406;2024-02-23T00:57:35;7.10;99.90
33815;DHT22;20121;51.910;8.406;2024-02-23T01:00:01;7.00;99.90
33815;DHT22;20121;51.910;8.406;2024-02-23T01:02:28;7.00;99.90
33815;DHT22;20121;51.910;8.406;2024-02-23T01:04:55;6.80;99.90
33815;DHT22;20121;51.910;8.406;2024-02-23T01:07:22;6.90;99.90
33815;DHT22;20121;51.910;8.406;2024-02-23T01:09:48;6.70;99.90
33815;DHT22;20121;51.910;8.406;2024-02-23T01:14:40;6.70;99.90
33815;DHT22;20121;51.910;8.406;2024-02-23T01:17:05;6.60;99.90
33815;DHT22;20121;51.910;8.406;2024-02-23T01:19:31;6.60;99.90
33815;DHT22;20121;51.910;8.406;2024-02-23T01:21:56;6.50;99.90
33815;DHT22;20121;51.910;8.406;2024-02-23T01:24:26;6.20;99.90
33815;DHT22;20121;51.910;8.406;2024-02-23T01:26:57;6.20;99.90
33815;DHT22;20121;51.910;8.406;2024-02-23T01:29:24;6.40;99.90
33815;DHT22;20121;51.910;8.406;2024-02-23T01:31:50;6.40;99.90
33815;DHT22;20121;51.910;8.406;2024-02-23T01:34:17;6.10;99.90
33815;DHT22;20121;51.910;8.406;2024-02-23T01:36:42;6.30;99.90
33815;DHT22;20121;51.910;8.406;2024-02-23T01:39:08;6.30;99.90
33815;DHT22;20121;51.910;8.406;2024-02-23T01:41:33;6.20;99.90
33815;DHT22;20121;51.910;8.406;2024-02-23T01:43:59;7.00;99.90
33815;DHT22;20121;51.910;8.406;2024-02-23T01:46:25;6.20;99.90
33815;DHT22;20121;51.910;8.406;2024-02-23T01:48:50;5.80;99.90
33815;DHT22;20121;51.910;8.406;2024-02-23T01:51:16;6.10;99.90
33815;DHT22;20121;51.910;8.406;2024-02-23T01:53:42;6.00;99.90
33815;DHT22;20121;51.910;8.406;2024-02-23T01:56:09;6.10;99.90
33815;DHT22;20121;51.910;8.406;2024-02-23T01:58:37;6.00;99.90
33815;DHT22;20121;51.910;8.406;2024-02-23T02:01:03;6.00;99.90
33815;DHT22;20121;51.910;8.406;2024-02-23T02:03:29;6.00;99.90
33815;DHT22;20121;51.910;8.406;2024-02-23T02:05:57;5.90;99.90
33815;DHT22;20121;51.910;8.406;2024-02-23T02:08:26;5.90;99.90
33815;DHT22;20121;51.910;8.406;2024-02-23T02:10:51;5.80;99.90
33815;DHT22;20121;51.910;8.406;2024-02-23T02:13:17;5.60;99.90
33815;DHT22;20121;51.910;8.406;2024-02-23T02:15:43;5.80;99.90
33815;DHT22;20121;51.910;8.406;2024-02-23T02:18:11;5.70;99.90
33815;DHT22;20121;51.910;8.406;2024-02-23T02:20:37;5.70;99.90
33815;DHT22;20121;51.910;8.406;2024-02-23T02:23:05;5.70;99.90
33815;DHT22;20121;51.910;8.406;2024-02-23T02:25:32;5.70;99.90
33815;DHT22;20121;51.910;8.406;2024-02-23T02:27:58;5.70;99.90
33815;DHT22;20121;51.910;8.406;2024-02-23T02:30:24;5.40;99.90
33815;DHT22;20121;51.910;8.406;2024-02-23T02:32:49;5.70;99.90
33815;DHT22;20121;51.910;8.406;2024-02-23T02:35:15;5.60;99.90
33815;DHT22;20121;51.910;8.406;2024-02-23T02:37:41;5.60;99.90
33815;DHT22;20121;51.910;8.406;2024-02-23T02:42:33;5.60;99.90
33815;DHT22;20121;51.910;8.406;2024-02-23T02:44:59;5.60;99.90
33815;DHT22;20121;51.910;8.406;2024-02-23T02:47:24;5.60;99.90
33815;DHT22;20121;51.910;8.406;2024-02-23T02:49:50;5.60;99.90
33815;DHT22;20121;51.910;8.406;2024-02-23T02:52:16;5.60;99.90
33815;DHT22;20121;51.910;8.406;2024-02-23T02:54:42;5.60;99.90
33815;DHT22;20121;51.910;8.406;2024-02-23T02:57:07;5.60;99.90
33815;DHT22;20121;51.910;8.406;2024-02-23T02:59:36;5.60;99.90
33815;DHT22;20121;51.910;8.406;2024-02-23T03:02:02;5.60;99.90
33815;DHT22;20121;51.910;8.406;2024-02-23T03:04:28;5.60;99.90
33815;DHT22;20121;51.910;8.406;2024-02-23T03:06:53;5.60;99.90
33815;DHT22;20121;51.910;8.406;2024-02-23T03:09:19;5.60;99.90
33815;DHT22;20121;51.910;8.406;2024-02-23T03:11:44;5.70;99.90
33815;DHT22;20121;51.910;8.406;2024-02-23T03:14:10;5.70;99.90
33815;DHT22;20121;51.910;8.406;2024-02-23T03:16:35;5.70;99.90
33815;DHT22;20121;51.910;8.406;2024-02-23T03:19:03;5.70;99.90
33815;DHT22;20121;51.910;8.406;2024-02-23T03:21:29;5.70;99.90
33815;DHT22;20121;51.910;8.406;2024-02-23T03:23:54;5.70;99.90
33815;DHT22;20121;51.910;8.406;2024-02-23T03:26:20;5.80;99.90
33815;DHT22;20121;51.910;8.406;2024-02-23T03:28:46;5.80;99.90
33815;DHT22;20121;51.910;8.406;2024-02-23T03:31:11;5.80;99.90
33815;DHT22;20121;51.910;8.406;2024-02-23T03:33:37;5.80;99.90
33815;DHT22;20121;51.910;8.406;2024-02-23T03:36:03;5.80;99.90
33815;DHT22;20121;51.910;8.406;2024-02-23T03:38:29;5.80;99.90
33815;DHT22;20121;51.910;8.406;2024-02-23T03:40:55;5.80;99.90
33815;DHT22;20121;51.910;8.406;2024-02-23T03:43:21;5.80;99.90
33815;DHT22;20121;51.910;8.406;2024-02-23T03:45:47;5.80;99.90
33815;DHT22;20121;51.910;8.406;2024-02-23T03:48:13;5.80;99.90
33815;DHT22;20121;51.910;8.406;2024-02-23T03:50:38;5.80;99.90
33815;DHT22;20121;51.910;8.406;2024-02-23T03:53:04;5.80;99.90
33815;DHT22;20121;51.910;8.406;2024-02-23T03:55:30;5.80;99.90
33815;DHT22;20121;51.910;8.406;2024-02-23T03:57:55;5.80;99.90
33815;DHT22;20121;51.910;8.406;2024-02-23T04:00:21;5.80;99.90
33815;DHT22;20121;51.910;8.406;2024-02-23T04:02:49;5.90;99.90
33815;DHT22;20121;51.910;8.406;2024-02-23T04:05:15;5.80;99.90
33815;DHT22;20121;51.910;8.406;2024-02-23T04:07:41;5.80;99.90
33815;DHT22;20121;51.910;8.406;2024-02-23T04:10:07;5.70;99.90
33815;DHT22;20121;51.910;8.406;2024-02-23T04:12:33;5.80;99.90
33815;DHT22;20121;51.910;8.406;2024-02-23T04:14:58;5.80;99.90
33815;DHT22;20121;51.910;8.406;2024-02-23T04:17:24;5.80;99.90
33815;DHT22;20121;51.910;8.406;2024-02-23T04:19:49;5.80;99.90
33815;DHT22;20121;51.910;8.406;2024-02-23T04:22:15;5.70;99.90
33815;DHT22;20121;51.910;8.406;2024-02-23T04:24:41;5.70;99.90
33815;DHT22;20121;51.910;8.406;2024-02-23T04:27:08;5.70;99.90
33815;DHT22;20121;51.910;8.406;2024-02-23T04:29:34;5.70;99.90
33815;DHT22;20121;51.910;8.406;2024-02-23T04:32:03;5.20;99.90
33815;DHT22;20121;51.910;8.406;2024-02-23T04:34:29;5.70;99.90
33815;DHT22;20121;51.910;8.406;2024-02-23T04:36:55;5.70;99.90
33815;DHT22;20121;51.910;8.406;2024-02-23T04:39:21;5.70;99.90
33815;DHT22;20121;51.910;8.406;2024-02-23T04:41:47;5.70;99.90
33815;DHT22;20121;51.910;8.406;2024-02-23T04:44:12;5.70;99.90
33815;DHT22;20121;51.910;8.406;2024-02-23T04:46:38;5.70;99.90
33815;DHT22;20121;51.910;8.406;2024-02-23T04:49:04;5.70;99.90
33815;DHT22;20121;51.910;8.406;2024-02-23T04:51:29;5.60;99.90
33815;DHT22;20121;51.910;8.406;2024-02-23T04:53:55;5.70;99.90
33815;DHT22;20121;51.910;8.406;2024-02-23T04:56:21;5.70;99.90
33815;DHT22;20121;51.910;8.406;2024-02-23T04:58:46;5.60;99.90
33815;DHT22;20121;51.910;8.406;2024-02-23T05:01:12;5.70;99.90
33815;DHT22;20121;51.910;8.406;2024-02-23T05:03:38;5.70;99.90
33815;DHT22;20121;51.910;8.406;2024-02-23T05:06:04;6.80;99.90
33815;DHT22;20121;51.910;8.406;2024-02-23T05:08:30;6.20;99.90
33815;DHT22;20121;51.910;8.406;2024-02-23T05:10:59;5.60;99.90
33815;DHT22;20121;51.910;8.406;2024-02-23T05:13:25;5.70;99.90
33815;DHT22;20121;51.910;8.406;2024-02-23T05:15:51;5.70;99.90
33815;DHT22;20121;51.910;8.406;2024-02-23T05:18:17;5.60;99.90
33815;DHT22;20121;51.910;8.406;2024-02-23T05:20:42;5.60;99.90
33815;DHT22;20121;51.910;8.406;2024-02-23T05:23:08;5.60;99.90
33815;DHT22;20121;51.910;8.406;2024-02-23T05:25:34;5.70;99.90
33815;DHT22;20121;51.910;8.406;2024-02-23T05:28:00;5.60;99.90
33815;DHT22;20121;51.910;8.406;2024-02-23T05:30:25;5.50;99.90
33815;DHT22;20121;51.910;8.406;2024-02-23T05:32:52;5.60;99.90
33815;DHT22;20121;51.910;8.406;2024-02-23T05:35:18;5.60;99.90
33815;DHT22;20121;51.910;8.406;2024-02-23T05:37:44;5.60;99.90
33815;DHT22;20121;51.910;8.406;2024-02-23T05:40:10;5.50;99.90
33815;DHT22;20121;51.910;8.406;2024-02-23T05:42:39;5.60;99.90
33815;DHT22;20121;51.910;8.406;2024-02-23T05:45:06;5.60;99.90
33815;DHT22;20121;51.910;8.406;2024-02-23T05:47:35;5.60;99.90
33815;DHT22;20121;51.910;8.406;2024-02-23T05:50:04;5.50;99.90
33815;DHT22;20121;51.910;8.406;2024-02-23T05:52:33;5.60;99.90
33815;DHT22;20121;51.910;8.406;2024-02-23T05:54:59;5.60;99.90
33815;DHT22;20121;51.910;8.406;2024-02-23T05:57:26;5.60;99.90
33815;DHT22;20121;51.910;8.406;2024-02-23T05:59:52;5.60;99.90
33815;DHT22;20121;51.910;8.406;2024-02-23T06:02:18;5.60;99.90
33815;DHT22;20121;51.910;8.406;2024-02-23T06:04:44;5.60;99.90
33815;DHT22;20121;51.910;8.406;2024-02-23T06:07:10;5.60;99.90
33815;DHT22;20121;51.910;8.406;2024-02-23T06:09:36;5.70;99.90
33815;DHT22;20121;51.910;8.406;2024-02-23T06:12:01;5.70;99.90
33815;DHT22;20121;51.910;8.406;2024-02-23T06:14:27;5.60;99.90
33815;DHT22;20121;51.910;8.406;2024-02-23T06:16:52;5.70;99.90
33815;DHT22;20121;51.910;8.406;2024-02-23T06:19:18;5.60;99.90
33815;DHT22;20121;51.910;8.406;2024-02-23T06:21:48;5.60;99.90
33815;DHT22;20121;51.910;8.406;2024-02-23T06:24:15;5.60;99.90
33815;DHT22;20121;51.910;8.406;2024-02-23T06:26:41;5.60;99.90
33815;DHT22;20121;51.910;8.406;2024-02-23T06:29:07;5.70;99.90
33815;DHT22;20121;51.910;8.406;2024-02-23T06:31:36;5.70;99.90
33815;DHT22;20121;51.910;8.406;2024-02-23T06:34:03;5.60;99.90
33815;DHT22;20121;51.910;8.406;2024-02-23T06:36:29;5.70;99.90
33815;DHT22;20121;51.910;8.406;2024-02-23T06:38:54;5.60;99.90
33815;DHT22;20121;51.910;8.406;2024-02-23T06:41:20;5.70;99.90
33815;DHT22;20121;51.910;8.406;2024-02-23T06:43:46;5.60;99.90
33815;DHT22;20121;51.910;8.406;2024-02-23T06:46:11;5.60;99.90
33815;DHT22;20121;51.910;8.406;2024-02-23T06:48:38;5.60;99.90
33815;DHT22;20121;51.910;8.406;2024-02-23T06:51:06;5.60;99.90
33815;DHT22;20121;51.910;8.406;2024-02-23T06:53:35;5.00;99.90
33815;DHT22;20121;51.910;8.406;2024-02-23T06:56:01;5.90;99.90
33815;DHT22;20121;51.910;8.406;2024-02-23T06:58:27;5.70;99.90
33815;DHT22;20121;51.910;8.406;2024-02-23T07:00:53;5.60;99.90
33815;DHT22;20121;51.910;8.406;2024-02-23T07:03:19;5.60;99.90
33815;DHT22;20121;51.910;8.406;2024-02-23T07:05:45;5.60;99.90
33815;DHT22;20121;51.910;8.406;2024-02-23T07:08:12;5.60;99.90
33815;DHT22;20121;51.910;8.406;2024-02-23T07:10:37;5.60;99.90
33815;DHT22;20121;51.910;8.406;2024-02-23T07:13:03;5.60;99.90
33815;DHT22;20121;51.910;8.406;2024-02-23T07:15:29;5.60;99.90
33815;DHT22;20121;51.910;8.406;2024-02-23T07:17:55;5.70;99.90
33815;DHT22;20121;51.910;8.406;2024-02-23T07:20:22;6.20;99.90
33815;DHT22;20121;51.910;8.406;2024-02-23T07:22:48;5.90;99.90
33815;DHT22;20121;51.910;8.406;2024-02-23T07:25:17;6.00;99.90
33815;DHT22;20121;51.910;8.406;2024-02-23T07:27:44;6.00;99.90
33815;DHT22;20121;51.910;8.406;2024-02-23T07:30:11;6.00;99.90
33815;DHT22;20121;51.910;8.406;2024-02-23T07:32:36;6.10;99.90
33815;DHT22;20121;51.910;8.406;2024-02-23T07:35:02;6.20;99.90
33815;DHT22;20121;51.910;8.406;2024-02-23T07:37:29;6.10;99.90
33815;DHT22;20121;51.910;8.406;2024-02-23T07:39:55;6.30;99.90
33815;DHT22;20121;51.910;8.406;2024-02-23T07:42:20;6.30;99.90
33815;DHT22;20121;51.910;8.406;2024-02-23T07:44:46;6.40;99.90
33815;DHT22;20121;51.910;8.406;2024-02-23T07:47:12;6.50;99.90
33815;DHT22;20121;51.910;8.406;2024-02-23T07:49:38;6.50;99.90
33815;DHT22;20121;51.910;8.406;2024-02-23T07:52:06;6.60;99.90
33815;DHT22;20121;51.910;8.406;2024-02-23T07:54:32;6.60;99.90
33815;DHT22;20121;51.910;8.406;2024-02-23T07:56:58;6.60;99.90
33815;DHT22;20121;51.910;8.406;2024-02-23T07:59:24;6.60;99.90
33815;DHT22;20121;51.910;8.406;2024-02-23T08:01:50;6.70;99.90
33815;DHT22;20121;51.910;8.406;2024-02-23T08:04:15;6.70;99.90
33815;DHT22;20121;51.910;8.406;2024-02-23T08:06:41;6.70;99.90
33815;DHT22;20121;51.910;8.406;2024-02-23T08:09:08;6.80;99.90
33815;DHT22;20121;51.910;8.406;2024-02-23T08:11:34;6.80;99.90
33815;DHT22;20121;51.910;8.406;2024-02-23T08:13:59;6.90;99.90
33815;DHT22;20121;51.910;8.406;2024-02-23T08:16:25;6.70;99.90
33815;DHT22;20121;51.910;8.406;2024-02-23T08:18:51;7.00;99.90
33815;DHT22;20121;51.910;8.406;2024-02-23T08:21:16;7.00;99.90
33815;DHT22;20121;51.910;8.406;2024-02-23T08:23:42;7.10;99.90
33815;DHT22;20121;51.910;8.406;2024-02-23T08:26:07;7.10;99.90
33815;DHT22;20121;51.910;8.406;2024-02-23T08:28:35;7.20;99.90
33815;DHT22;20121;51.910;8.406;2024-02-23T08:31:01;7.40;99.90
33815;DHT22;20121;51.910;8.406;2024-02-23T08:33:26;7.40;99.90
33815;DHT22;20121;51.910;8.406;2024-02-23T08:35:52;8.40;99.90
33815;DHT22;20121;51.910;8.406;2024-02-23T08:38:18;7.40;99.90
33815;DHT22;20121;51.910;8.406;2024-02-23T08:40:44;7.50;99.90
33815;DHT22;20121;51.910;8.406;2024-02-23T08:43:11;7.50;99.90
33815;DHT22;20121;51.910;8.406;2024-02-23T08:45:36;7.50;99.90
33815;DHT22;20121;51.910;8.406;2024-02-23T08:48:02;7.50;99.90
33815;DHT22;20121;51.910;8.406;2024-02-23T08:50:31;7.50;99.90
33815;DHT22;20121;51.910;8.406;2024-02-23T08:52:57;7.50;99.90
33815;DHT22;20121;51.910;8.406;2024-02-23T08:55:23;7.50;99.90
33815;DHT22;20121;51.910;8.406;2024-02-23T08:57:49;7.60;99.90
33815;DHT22;20121;51.910;8.406;2024-02-23T09:00:15;7.50;99.90
33815;DHT22;20121;51.910;8.406;2024-02-23T09:02:41;7.80;99.90
33815;DHT22;20121;51.910;8.406;2024-02-23T09:05:09;7.90;99.90
33815;DHT22;20121;51.910;8.406;2024-02-23T09:07:35;8.20;99.90
33815;DHT22;20121;51.910;8.406;2024-02-23T09:10:02;8.00;99.90
33815;DHT22;20121;51.910;8.406;2024-02-23T09:12:30;8.00;99.90
33815;DHT22;20121;51.910;8.406;2024-02-23T09:14:55;8.00;99.90
33815;DHT22;20121;51.910;8.406;2024-02-23T09:17:21;8.00;99.90
33815;DHT22;20121;51.910;8.406;2024-02-23T09:19:47;7.90;99.90
33815;DHT22;20121;51.910;8.406;2024-02-23T09:22:13;7.80;99.90
33815;DHT22;20121;51.910;8.406;2024-02-23T09:24:42;7.80;99.90
33815;DHT22;20121;51.910;8.406;2024-02-23T09:27:07;7.80;99.90
33815;DHT22;20121;51.910;8.406;2024-02-23T09:29:33;7.70;99.90
33815;DHT22;20121;51.910;8.406;2024-02-23T09:31:59;7.60;99.90
33815;DHT22;20121;51.910;8.406;2024-02-23T09:34:25;7.50;99.90
33815;DHT22;20121;51.910;8.406;2024-02-23T09:36:51;6.50;99.90
33815;DHT22;20121;51.910;8.406;2024-02-23T09:39:17;7.50;99.90
33815;DHT22;20121;51.910;8.406;2024-02-23T09:41:43;7.50;99.90
33815;DHT22;20121;51.910;8.406;2024-02-23T09:44:09;7.50;99.90
33815;DHT22;20121;51.910;8.406;2024-02-23T09:46:37;7.50;99.90
33815;DHT22;20121;51.910;8.406;2024-02-23T09:49:03;7.50;99.90
33815;DHT22;20121;51.910;8.406;2024-02-23T09:51:32;6.80;99.90
33815;DHT22;20121;51.910;8.406;2024-02-23T09:53:59;7.40;99.90
33815;DHT22;20121;51.910;8.406;2024-02-23T09:56:27;7.50;99.90
33815;DHT22;20121;51.910;8.406;2024-02-23T09:58:55;7.60;99.90
33815;DHT22;20121;51.910;8.406;2024-02-23T10:01:28;7.50;99.90
33815;DHT22;20121;51.910;8.406;2024-02-23T10:03:57;7.70;99.90
33815;DHT22;20121;51.910;8.406;2024-02-23T10:06:26;7.60;99.90
33815;DHT22;20121;51.910;8.406;2024-02-23T10:08:53;7.90;99.90
33815;DHT22;20121;51.910;8.406;2024-02-23T10:11:21;7.60;99.90
33815;DHT22;20121;51.910;8.406;2024-02-23T10:13:48;6.70;99.90
33815;DHT22;20121;51.910;8.406;2024-02-23T10:16:18;7.60;99.90
33815;DHT22;20121;51.910;8.406;2024-02-23T10:18:46;7.60;99.90
33815;DHT22;20121;51.910;8.406;2024-02-23T10:21:12;7.90;99.90
33815;DHT22;20121;51.910;8.406;2024-02-23T10:23:38;7.70;99.90
33815;DHT22;20121;51.910;8.406;2024-02-23T10:26:05;7.70;99.90
33815;DHT22;20121;51.910;8.406;2024-02-23T10:28:31;7.70;99.90
33815;DHT22;20121;51.910;8.406;2024-02-23T10:30:57;7.70;99.90
33815;DHT22;20121;51.910;8.406;2024-02-23T10:33:23;7.70;99.90
33815;DHT22;20121;51.910;8.406;2024-02-23T10:35:55;7.60;99.90
33815;DHT22;20121;51.910;8.406;2024-02-23T10:38:22;7.70;99.90
33815;DHT22;20121;51.910;8.406;2024-02-23T10:40:49;7.70;99.90
33815;DHT22;20121;51.910;8.406;2024-02-23T10:43:19;7.70;99.90
33815;DHT22;20121;51.910;8.406;2024-02-23T10:45:46;7.80;99.90
33815;DHT22;20121;51.910;8.406;2024-02-23T10:48:12;7.80;99.90
33815;DHT22;20121;51.910;8.406;2024-02-23T10:50:40;7.80;99.90
33815;DHT22;20121;51.910;8.406;2024-02-23T10:53:10;7.90;99.90
33815;DHT22;20121;51.910;8.406;2024-02-23T10:55:37;7.90;99.90
33815;DHT22;20121;51.910;8.406;2024-02-23T10:58:06;7.90;99.90
33815;DHT22;20121;51.910;8.406;2024-02-23T11:00:33;8.00;99.90
33815;DHT22;20121;51.910;8.406;2024-02-23T11:02:59;8.00;99.90
33815;DHT22;20121;51.910;8.406;2024-02-23T11:05:25;8.10;99.90
33815;DHT22;20121;51.910;8.406;2024-02-23T11:07:55;8.10;99.90
33815;DHT22;20121;51.910;8.406;2024-02-23T11:10:22;8.00;99.90
33815;DHT22;20121;51.910;8.406;2024-02-23T11:13:07;8.20;99.90
33815;DHT22;20121;51.910;8.406;2024-02-23T11:15:33;8.20;99.90
33815;DHT22;20121;51.910;8.406;2024-02-23T11:18:21;8.30;99.90
33815;DHT22;20121;51.910;8.406;2024-02-23T11:20:54;8.40;99.90
33815;DHT22;20121;51.910;8.406;2024-02-23T11:23:20;8.70;99.90
33815;DHT22;20121;51.910;8.406;2024-02-23T11:26:06;8.50;99.90
33815;DHT22;20121;51.910;8.406;2024-02-23T11:28:48;8.50;99.90
33815;DHT22;20121;51.910;8.406;2024-02-23T11:31:16;8.60;99.90
33815;DHT22;20121;51.910;8.406;2024-02-23T11:33:54;8.70;99.90
33815;DHT22;20121;51.910;8.406;2024-02-23T11:36:31;8.50;99.90
33815;DHT22;20121;51.910;8.406;2024-02-23T11:38:58;9.30;99.90
33815;DHT22;20121;51.910;8.406;2024-02-23T11:41:25;8.50;99.90
33815;DHT22;20121;51.910;8.406;2024-02-23T11:43:52;8.30;99.90
33815;DHT22;20121;51.910;8.406;2024-02-23T11:46:18;8.50;99.90
33815;DHT22;20121;51.910;8.406;2024-02-23T11:48:44;8.50;99.90
33815;DHT22;20121;51.910;8.406;2024-02-23T11:51:15;8.50;99.90
33815;DHT22;20121;51.910;8.406;2024-02-23T11:53:41;8.50;99.90
33815;DHT22;20121;51.910;8.406;2024-02-23T11:56:07;8.50;99.90
33815;DHT22;20121;51.910;8.406;2024-02-23T11:58:33;8.30;99.90
33815;DHT22;20121;51.910;8.406;2024-02-23T12:01:03;8.50;99.90
33815;DHT22;20121;51.910;8.406;2024-02-23T12:03:29;8.30;99.90
33815;DHT22;20121;51.910;8.406;2024-02-23T12:06:02;8.50;99.90
33815;DHT22;20121;51.910;8.406;2024-02-23T12:08:31;8.60;99.90
33815;DHT22;20121;51.910;8.406;2024-02-23T12:11:07;8.60;99.90
33815;DHT22;20121;51.910;8.406;2024-02-23T12:13:35;8.60;99.90
33815;DHT22;20121;51.910;8.406;2024-02-23T12:16:01;8.60;99.90
33815;DHT22;20121;51.910;8.406;2024-02-23T12:18:27;8.60;99.90
33815;DHT22;20121;51.910;8.406;2024-02-23T12:21:03;8.60;99.90
33815;DHT22;20121;51.910;8.406;2024-02-23T12:23:43;8.50;99.90
33815;DHT22;20121;51.910;8.406;2024-02-23T12:26:13;8.60;99.90
33815;DHT22;20121;51.910;8.406;2024-02-23T12:28:39;8.60;99.90
33815;DHT22;20121;51.910;8.406;2024-02-23T12:31:06;8.60;99.90
33815;DHT22;20121;51.910;8.406;2024-02-23T12:33:33;8.60;99.90
33815;DHT22;20121;51.910;8.406;2024-02-23T12:36:00;8.60;99.90
33815;DHT22;20121;51.910;8.406;2024-02-23T12:38:26;8.70;99.90
33815;DHT22;20121;51.910;8.406;2024-02-23T12:40:52;8.70;99.90
33815;DHT22;20121;51.910;8.406;2024-02-23T12:43:18;8.80;99.90
33815;DHT22;20121;51.910;8.406;2024-02-23T12:45:50;8.90;99.90
33815;DHT22;20121;51.910;8.406;2024-02-23T12:48:16;8.90;99.90
33815;DHT22;20121;51.910;8.406;2024-02-23T12:50:42;9.00;99.90
33815;DHT22;20121;51.910;8.406;2024-02-23T12:55:56;9.10;99.90
33815;DHT22;20121;51.910;8.406;2024-02-23T12:58:22;9.10;99.90
33815;DHT22;20121;51.910;8.406;2024-02-23T13:00:47;9.20;99.90
33815;DHT22;20121;51.910;8.406;2024-02-23T13:03:13;9.20;99.90
33815;DHT22;20121;51.910;8.406;2024-02-23T13:05:38;9.20;99.90
33815;DHT22;20121;51.910;8.406;2024-02-23T13:08:05;9.10;99.90
33815;DHT22;20121;51.910;8.406;2024-02-23T13:13:08;9.10;99.90
33815;DHT22;20121;51.910;8.406;2024-02-23T13:15:34;9.10;99.90
33815;DHT22;20121;51.910;8.406;2024-02-23T13:18:03;9.10;99.90
33815;DHT22;20121;51.910;8.406;2024-02-23T13:20:29;9.10;99.90
33815;DHT22;20121;51.910;8.406;2024-02-23T13:22:55;9.10;99.90
33815;DHT22;20121;51.910;8.406;2024-02-23T13:25:21;9.10;99.90
33815;DHT22;20121;51.910;8.406;2024-02-23T13:27:47;9.10;99.90
33815;DHT22;20121;51.910;8.406;2024-02-23T13:30:13;9.10;99.90
33815;DHT22;20121;51.910;8.406;2024-02-23T13:32:38;9.10;99.90
33815;DHT22;20121;51.910;8.406;2024-02-23T13:35:05;9.10;99.90
33815;DHT22;20121;51.910;8.406;2024-02-23T13:37:32;9.10;99.90
33815;DHT22;20121;51.910;8.406;2024-02-23T13:39:57;9.00;99.90
33815;DHT22;20121;51.910;8.406;2024-02-23T13:42:23;9.00;99.90
33815;DHT22;20121;51.910;8.406;2024-02-23T13:44:49;9.10;99.90
33815;DHT22;20121;51.910;8.406;2024-02-23T13:47:14;9.10;99.90
33815;DHT22;20121;51.910;8.406;2024-02-23T13:49:40;9.00;99.90
33815;DHT22;20121;51.910;8.406;2024-02-23T13:52:06;9.00;99.90
33815;DHT22;20121;51.910;8.406;2024-02-23T13:54:31;9.00;99.90
33815;DHT22;20121;51.910;8.406;2024-02-23T13:56:57;9.00;99.90
33815;DHT22;20121;51.910;8.406;2024-02-23T13:59:23;9.00;99.90
33815;DHT22;20121;51.910;8.406;2024-02-23T14:01:48;8.90;99.90
33815;DHT22;20121;51.910;8.406;2024-02-23T14:04:14;8.90;99.90
33815;DHT22;20121;51.910;8.406;2024-02-23T14:06:40;8.90;99.90
33815;DHT22;20121;51.910;8.406;2024-02-23T14:09:05;8.90;99.90
33815;DHT22;20121;51.910;8.406;2024-02-23T14:11:31;8.90;99.90
33815;DHT22;20121;51.910;8.406;2024-02-23T14:13:57;8.90;99.90
33815;DHT22;20121;51.910;8.406;2024-02-23T14:16:23;8.90;99.90
33815;DHT22;20121;51.910;8.406;2024-02-23T14:18:49;8.90;99.90
33815;DHT22;20121;51.910;8.406;2024-02-23T14:21:15;8.90;99.90
33815;DHT22;20121;51.910;8.406;2024-02-23T14:23:42;8.80;99.90
33815;DHT22;20121;51.910;8.406;2024-02-23T14:26:08;8.80;99.90
33815;DHT22;20121;51.910;8.406;2024-02-23T14:28:33;8.90;99.90
33815;DHT22;20121;51.910;8.406;2024-02-23T14:30:59;8.80;99.90
33815;DHT22;20121;51.910;8.406;2024-02-23T14:33:25;8.80;99.90
33815;DHT22;20121;51.910;8.406;2024-02-23T14:35:51;8.80;99.90
33815;DHT22;20121;51.910;8.406;2024-02-23T14:38:17;8.80;99.90
33815;DHT22;20121;51.910;8.406;2024-02-23T14:40:43;9.00;99.90
33815;DHT22;20121;51.910;8.406;2024-02-23T14:43:08;8.80;99.90
33815;DHT22;20121;51.910;8.406;2024-02-23T14:45:35;8.80;99.90
33815;DHT22;20121;51.910;8.406;2024-02-23T14:48:01;8.80;99.90
33815;DHT22;20121;51.910;8.406;2024-02-23T14:50:27;8.70;99.90
33815;DHT22;20121;51.910;8.406;2024-02-23T14:52:53;8.70;99.90
33815;DHT22;20121;51.910;8.406;2024-02-23T14:55:19;8.70;99.90
33815;DHT22;20121;51.910;8.406;2024-02-23T14:57:45;8.70;99.90
33815;DHT22;20121;51.910;8.406;2024-02-23T15:00:11;8.60;99.90
33815;DHT22;20121;51.910;8.406;2024-02-23T15:02:38;8.60;99.90
33815;DHT22;20121;51.910;8.406;2024-02-23T15:05:05;8.60;99.90
33815;DHT22;20121;51.910;8.406;2024-02-23T15:07:34;8.60;99.90
33815;DHT22;20121;51.910;8.406;2024-02-23T15:10:01;8.60;99.90
33815;DHT22;20121;51.910;8.406;2024-02-23T15:12:31;8.60;99.90
33815;DHT22;20121;51.910;8.406;2024-02-23T15:14:57;8.60;99.90
33815;DHT22;20121;51.910;8.406;2024-02-23T15:17:23;8.60;99.90
33815;DHT22;20121;51.910;8.406;2024-02-23T15:19:48;8.50;99.90
33815;DHT22;20121;51.910;8.406;2024-02-23T15:22:14;8.50;99.90
33815;DHT22;20121;51.910;8.406;2024-02-23T15:24:41;8.50;99.90
33815;DHT22;20121;51.910;8.406;2024-02-23T15:27:10;9.90;99.90
33815;DHT22;20121;51.910;8.406;2024-02-23T15:29:36;8.50;99.90
33815;DHT22;20121;51.910;8.406;2024-02-23T15:32:02;8.40;99.90
33815;DHT22;20121;51.910;8.406;2024-02-23T15:34:27;8.50;99.90
33815;DHT22;20121;51.910;8.406;2024-02-23T15:36:53;8.50;99.90
33815;DHT22;20121;51.910;8.406;2024-02-23T15:39:19;8.50;99.90
33815;DHT22;20121;51.910;8.406;2024-02-23T15:41:45;8.40;99.90
33815;DHT22;20121;51.910;8.406;2024-02-23T15:44:11;8.40;99.90
33815;DHT22;20121;51.910;8.406;2024-02-23T15:46:37;8.40;99.90
33815;DHT22;20121;51.910;8.406;2024-02-23T15:49:02;8.40;99.90
33815;DHT22;20121;51.910;8.406;2024-02-23T15:51:28;8.70;99.90